TimeMST,TemperatureF,Dew PointF,Humidity,Sea Level PressureIn,VisibilityMPH,Wind Direction,Wind SpeedMPH,Gust SpeedMPH,PrecipitationIn,Events,Conditions,WindDirDegrees,DateUTC
12:53 AM,30.0,26.1,85,30.01,10.0,West,11.5,-,N/A,,Overcast,270,2013-02-14 07:53:00
1:53 AM,30.9,26.1,82,30.01,10.0,West,10.4,-,N/A,,Overcast,280,2013-02-14 08:53:00
2:53 AM,30.9,26.1,82,30.00,10.0,WNW,10.4,-,N/A,,Overcast,300,2013-02-14 09:53:00
3:53 AM,30.9,26.1,82,30.01,10.0,NW,9.2,-,N/A,,Overcast,310,2013-02-14 10:53:00
4:53 AM,30.0,25.0,82,30.04,10.0,NW,8.1,-,N/A,,Overcast,310,2013-02-14 11:53:00
5:53 AM,30.0,25.0,82,30.05,10.0,WNW,10.4,-,N/A,,Overcast,290,2013-02-14 12:53:00
6:45 AM,30.2,24.8,80,30.03,10.0,NW,20.7,-,N/A,,Overcast,320,2013-02-14 13:45:00
6:53 AM,30.0,23.0,75,30.09,10.0,NW,15.0,-,N/A,,Overcast,320,2013-02-14 13:53:00
7:14 AM,28.4,21.2,74,30.03,10.0,NNW,15.0,25.3,N/A,,Overcast,330,2013-02-14 14:14:00
7:53 AM,28.9,19.9,69,30.12,10.0,NW,13.8,-,N/A,,Overcast,310,2013-02-14 14:53:00
8:53 AM,28.9,19.9,69,30.13,10.0,NW,18.4,28.8,N/A,,Overcast,310,2013-02-14 15:53:00
9:53 AM,28.9,19.0,67,30.19,10.0,NNW,26.5,39.1,N/A,,Overcast,330,2013-02-14 16:53:00
10:53 AM,30.0,18.0,61,30.22,10.0,NNW,28.8,38.0,N/A,,Overcast,330,2013-02-14 17:53:00
11:53 AM,30.9,17.1,57,30.23,10.0,NNW,23.0,34.5,N/A,,Clear,330,2013-02-14 18:53:00
12:53 PM,32.0,15.1,50,30.22,10.0,NNW,24.2,32.2,N/A,,Clear,330,2013-02-14 19:53:00
1:53 PM,32.0,14.0,48,30.23,10.0,NW,23.0,31.1,N/A,,Clear,320,2013-02-14 20:53:00
2:53 PM,32.0,12.0,44,30.25,10.0,NW,20.7,29.9,N/A,,Mostly Cloudy,320,2013-02-14 21:53:00
3:53 PM,32.0,19.4,60,30.19,10.0,North,12.7,25.3,N/A,,Mostly Cloudy,10,2013-02-14 22:53:00
4:24 PM,32.0,10.4,41,30.19,10.0,NNW,23.0,33.4,N/A,,Mostly Cloudy,330,2013-02-14 23:24:00
4:53 PM,30.0,10.9,45,30.29,10.0,NNW,21.9,27.6,N/A,,Clear,340,2013-02-14 23:53:00
5:53 PM,24.1,16.0,71,30.34,10.0,NNE,8.1,-,N/A,,Clear,30,2013-02-15 00:53:00
6:53 PM,19.9,17.1,89,30.36,10.0,North,6.9,-,N/A,,Clear,360,2013-02-15 01:53:00
7:53 PM,14.0,10.9,88,30.39,10.0,Calm,Calm,-,N/A,,Clear,0,2013-02-15 02:53:00
8:53 PM,15.1,14.0,95,30.40,10.0,Calm,Calm,-,N/A,,Clear,0,2013-02-15 03:53:00
9:53 PM,14.0,10.0,84,30.40,10.0,NW,4.6,-,N/A,,Clear,310,2013-02-15 04:53:00
10:53 PM,8.1,3.9,83,30.43,10.0,West,6.9,-,N/A,,Clear,270,2013-02-15 05:53:00
11:53 PM,8.1,3.9,83,30.42,10.0,West,6.9,-,N/A,,Clear,270,2013-02-15 06:53:00